KG5APU Weather Reports


time (UTC)temp
C
wind
direction
speed
KPH
gust
KPH
rain 1hr
cm
rain 24hr
cm
rain mn
cm
humidity
%
barometer
mb
20220627212722 32 15 8.0 12.9 0.00 0.00 0.00 51 1021.7
20220627211721 33 39 9.7 12.9 0.00 0.00 0.00 50 1021.9
20220627210721 33 13 11.3 14.5 0.00 0.00 0.00 51 1022.1
20220627205720 32 42 9.7 14.5 0.00 0.00 0.00 52 1022.1
20220627204718 32 24 8.0 12.9 0.00 0.00 0.00 51 1022.2
20220627203718 32 297 6.4 8.0 0.00 0.00 0.00 52 1022.1
20220627202717 32 42 3.2 4.8 0.00 0.00 0.00 53 1022.2
20220627201716 32 52 6.4 11.3 0.00 0.00 0.00 54 1022.3
20220627200714 32 180 4.8 8.0 0.00 0.00 0.00 53 1022.6
20220627195714 32 65 6.4 8.0 0.00 0.00 0.00 55 1022.4
20220627194715 32 70 4.8 9.7 0.00 0.00 0.00 54 1022.7
20220627193714 32 19 4.8 4.8 0.00 0.00 0.00 56 1022.9
20220627192714 31 92 6.4 9.7 0.00 0.00 0.00 56 1023.0
20220627191712 31 28 3.2 8.0 0.00 0.00 0.00 56 1023.1
20220627190711 31 80 3.2 4.8 0.00 0.00 0.00 58 1023.2
20220627185711 31 74 3.2 4.8 0.00 0.00 0.00 59 1023.4
20220627184711 31 0 8.0 11.3 0.00 0.00 0.00 58 1023.4
20220627183710 32 67 3.2 4.8 0.00 0.00 0.00 57 1023.5
20220627182708 31 57 4.8 4.8 0.00 0.00 0.00 57 1023.5
20220627181707 31 66 6.4 9.7 0.00 0.00 0.00 57 1023.7
20220627180707 31 36 1.6 1.6 0.00 0.00 0.00 59 1023.9
20220627175707 31 123 1.6 3.2 0.00 0.00 0.00 60 1023.9
20220627174707 31 32 4.8 4.8 0.00 0.00 0.00 59 1024.0
20220627173707 30 114 3.2 3.2 0.00 0.00 0.00 59 1024.0
20220627172708 30 75 4.8 4.8 0.00 0.00 0.00 61 1024.2
20220627171706 30 61 3.2 3.2 0.00 0.00 0.00 61 1023.9
20220627170706 30 60 4.8 4.8 0.00 0.00 0.00 62 1024.1
20220627165704 30 50 8.0 9.7 0.00 0.00 0.00 61 1024.1
20220627164705 29 79 6.4 8.0 0.00 0.00 0.00 63 1024.4
20220627163704 29 45 4.8 8.0 0.00 0.00 0.00 64 1024.2
20220627162702 29 87 6.4 8.0 0.00 0.00 0.00 64 1024.2
20220627161701 29 148 3.2 4.8 0.00 0.00 0.00 63 1024.5
20220627160659 30 21 8.0 9.7 0.00 0.00 0.00 60 1024.2
20220627155658 30 171 9.7 14.5 0.00 0.00 0.00 61 1024.2
20220627154657 29 136 3.2 3.2 0.00 0.00 0.00 61 1024.2
20220627153658 29 95 3.2 4.8 0.00 0.00 0.00 60 1024.1
20220627152658 28 78 8.0 11.3 0.00 0.00 0.00 60 1024.3
20220627151657 28 326 8.0 9.7 0.00 0.00 0.00 63 1024.4
20220627150657 28 146 3.2 4.8 0.00 0.00 0.00 63 1024.3
20220627145658 27 18 4.8 4.8 0.00 0.00 0.00 63 1024.4
20220627144656 27 51 4.8 8.0 0.00 0.00 0.00 62 1024.5
20220627143655 26 89 3.2 4.8 0.00 0.00 0.00 64 1024.4
20220627142654 26 86 4.8 8.0 0.00 0.00 0.00 64 1024.3
20220627141654 26 73 4.8 9.7 0.00 0.00 0.00 63 1024.4
20220627140653 25 2 3.2 4.8 0.00 0.00 0.00 64 1024.4
20220627135652 25 64 6.4 8.0 0.00 0.00 0.00 65 1024.5
20220627134652 25 34 8.0 12.9 0.00 0.00 0.00 63 1024.2
20220627133653 25 2 8.0 11.3 0.00 0.00 0.00 62 1024.4
20220627132651 24 82 3.2 4.8 0.00 0.00 0.00 63 1023.9
20220627131650 24 61 4.8 8.0 0.00 0.00 0.00 62 1024.1
20220627130651 24 140 3.2 4.8 0.00 0.00 0.00 62 1024.3
20220627125649 23 35 3.2 4.8 0.00 0.00 0.00 62 1024.3
20220627124648 23 359 3.2 3.2 0.00 0.00 0.00 62 1024.1
20220627123648 23 17 8.0 11.3 0.00 0.00 0.00 63 1023.9
20220627122648 22 38 4.8 8.0 0.00 0.00 0.00 63 1023.6
20220627121647 22 112 4.8 4.8 0.00 0.00 0.00 63 1023.8
20220627120646 22 51 1.6 1.6 0.00 0.00 0.00 63 1023.6
20220627115644 22 13 8.0 11.3 0.00 0.00 0.00 62 1023.3
20220627114644 22 6 8.0 11.3 0.00 0.00 0.00 62 1023.4
20220627113644 22 351 3.2 4.8 0.00 0.00 0.00 61 1023.2
20220627112644 22 279 4.8 8.0 0.00 0.00 0.00 62 1023.3
20220627111643 22 75 4.8 8.0 0.00 0.00 0.00 61 1023.3
20220627110644 22 31 4.8 8.0 0.00 0.00 0.00 61 1023.1
20220627105644 22 26 4.8 4.8 0.00 0.00 0.00 60 1023.2
20220627104644 22 4 4.8 9.7 0.00 0.00 0.00 60 1023.1
20220627103644 22 21 8.0 11.3 0.00 0.00 0.00 60 1023.0
20220627102643 22 190 8.0 11.3 0.00 0.00 0.00 59 1023.1
20220627101642 22 46 9.7 11.3 0.00 0.00 0.00 59 1023.1
20220627100641 22 45 4.8 8.0 0.00 0.00 0.00 58 1023.3
20220627095640 22 13 12.9 14.5 0.00 0.00 0.00 58 1023.0
20220627094641 23 44 12.9 16.1 0.00 0.00 0.00 58 1022.9
20220627093641 23 40 12.9 14.5 0.00 0.00 0.00 58 1023.0
20220627092639 23 349 11.3 16.1 0.00 0.00 0.00 58 1023.1
20220627091637 23 286 8.0 9.7 0.00 0.00 0.00 57 1023.3
20220627090637 23 313 6.4 9.7 0.00 0.00 0.00 58 1023.1
20220627085636 23 285 4.8 9.7 0.00 0.00 0.00 58 1023.1
20220627084634 23 58 3.2 3.2 0.00 0.00 0.00 58 1023.1
20220627083634 23 107 3.2 3.2 0.00 0.00 0.00 57 1023.0
20220627082633 23 293 3.2 3.2 0.00 0.00 0.00 58 1022.6
20220627081632 23 287 3.2 3.2 0.00 0.00 0.00 56 1022.9
20220627080631 23 54 4.8 8.0 0.00 0.00 0.00 56 1022.8
20220627075631 24 330 11.3 12.9 0.00 0.00 0.00 56 1022.9
20220627074631 24 301 6.4 8.0 0.00 0.00 0.00 59 1022.8
20220627073630 25 94 4.8 8.0 0.00 0.00 0.00 60 1022.8
20220627072628 25 70 6.4 8.0 0.00 0.00 0.00 62 1023.0
20220627071628 25 51 4.8 8.0 0.00 0.00 0.00 62 1022.9
20220627070626 25 49 6.4 9.7 0.00 0.00 0.00 64 1022.9
20220627065625 25 256 4.8 8.0 0.00 0.00 0.00 65 1023.0
20220627064623 25 2 6.4 8.0 0.00 0.00 0.00 65 1022.7
20220627063623 25 70 4.8 4.8 0.00 0.00 0.00 66 1023.0
20220627062622 26 5 3.2 4.8 0.00 0.00 0.00 65 1022.9
20220627061622 26 112 3.2 8.0 0.00 0.00 0.00 66 1023.1
20220627060622 26 55 6.4 9.7 0.00 0.00 0.00 66 1022.8
20220627055622 26 349 4.8 8.0 0.00 0.00 0.00 66 1022.8
20220627054622 26 356 8.0 9.7 0.00 0.00 0.00 66 1022.9
20220627053622 27 40 11.3 16.1 0.00 0.00 0.00 65 1023.0
20220627052620 27 133 4.8 4.8 0.00 0.00 0.00 66 1022.9
20220627051618 27 312 4.8 8.0 0.00 0.00 0.00 66 1023.1
20220627050617 27 28 8.0 9.7 0.00 0.00 0.00 65 1022.7
20220627045617 27 62 6.4 8.0 0.00 0.00 0.00 64 1022.8
20220627044617 27 55 12.9 24.1 0.00 0.00 0.00 64 1022.7
20220627043616 27 20 8.0 12.9 0.00 0.00 0.00 63 1022.4
20220627042614 27 5 6.4 11.3 0.00 0.00 0.00 63 1022.3
20220627041613 27 17 4.8 11.3 0.00 0.00 0.00 64 1022.2
20220627040612 28 341 3.2 4.8 0.00 0.00 0.00 63 1022.4
20220627035610 28 15 12.9 14.5 0.00 0.00 0.00 63 1022.2
20220627034610 28 352 9.7 12.9 0.00 0.00 0.00 62 1022.0
20220627033609 28 51 11.3 16.1 0.00 0.00 0.00 62 1021.9
20220627032608 28 34 6.4 9.7 0.00 0.00 0.00 62 1021.9
20220627031608 28 53 8.0 12.9 0.00 0.00 0.00 62 1021.6
20220627030607 29 16 11.3 16.1 0.00 0.00 0.00 62 1021.6
20220627025606 29 31 9.7 11.3 0.00 0.00 0.00 63 1021.4
20220627024607 30 45 20.9 24.1 0.00 0.00 0.00 62 1021.2
20220627023606 30 314 11.3 12.9 0.00 0.00 0.00 62 1021.3
20220627022605 30 301 11.3 14.5 0.00 0.00 0.00 62 1021.4
20220627021604 30 313 8.0 9.7 0.00 0.00 0.00 62 1020.9
20220627020604 30 44 11.3 14.5 0.00 0.00 0.00 61 1021.0
20220627015603 30 348 11.3 12.9 0.00 0.00 0.00 61 1020.5
20220627014603 31 289 9.7 14.5 0.00 0.00 0.00 60 1020.6
20220627013603 31 311 4.8 4.8 0.00 0.00 0.00 59 1020.2
20220627012603 32 62 9.7 12.9 0.00 0.00 0.00 58 1019.8
20220627011603 32 70 4.8 8.0 0.00 0.00 0.00 56 1019.6
20220627010603 33 150 6.4 8.0 0.00 0.00 0.00 53 1019.3
20220627005603 33 143 8.0 11.3 0.00 0.00 0.00 52 1019.2
20220627004602 33 46 9.7 12.9 0.00 0.00 0.00 50 1019.2
20220627003601 33 37 12.9 14.5 0.00 0.00 0.00 49 1019.2
20220627002601 34 321 9.7 12.9 0.00 0.00 0.00 49 1018.9
20220627001602 34 12 9.7 14.5 0.00 0.00 0.00 48 1018.9
20220627000600 34 38 6.4 9.7 0.00 0.00 0.00 47 1018.9
20220626235558 35 21 8.0 11.3 0.00 0.00 0.00 45 1018.6
20220626234559 35 348 4.8 8.0 0.00 0.00 0.00 45 1018.7
20220626233557 35 19 4.8 4.8 0.00 0.00 0.00 48 1018.2
20220626232558 35 31 3.2 4.8 0.00 0.00 0.00 48 1018.2
20220626231557 34 33 3.2 4.8 0.00 0.00 0.00 47 1018.2
20220626230558 35 60 6.4 9.7 0.00 0.00 0.00 45 1018.2
20220626225556 35 55 1.6 3.2 0.00 0.00 0.00 44 1018.1
20220626224557 36 49 4.8 4.8 0.00 0.00 0.00 42 1018.5
20220626223555 36 63 4.8 4.8 0.00 0.00 0.00 35 1018.2
20220626222554 37 89 1.6 1.6 0.00 0.00 0.00 34 1018.7
20220626221553 37 129 6.4 8.0 0.00 0.00 0.00 35 1018.2
20220626220551 37 158 4.8 8.0 0.00 0.00 0.00 35 1018.6
20220626215551 37 51 8.0 9.7 0.00 0.00 0.00 33 1018.7
20220626214549 37 68 6.4 8.0 0.00 0.00 0.00 33 1018.7
20220626213549 37 71 6.4 9.7 0.00 0.00 0.00 34 1018.9